America — WDE6076 — position and weather

sailwx.info

Track history (hours):
 
Tides and Currents Weather Stations Pressure Air Temp Water Temp Dewpoint Dewpoint Depression Visibility Wind Speed Wind Dir Waves Ship Positions

America

Owner: ET Yacht, LLC, San Diego, CA. More information available from US FCC via Universal Licensing System and Coast Guard Vessel Documentation Center.

Last reported at 2015-Jul-28 00:33 UTC. Time now 2015-Jul-28 01:32 UTC.
Position N 37°45' W 122°22'.

Length 29 m.

Type: Sailing vessel. MMSI: 367375550.

Date/timePositionNaut miles runAvg speedWind from/ knotsBaromVisibWave heightAir tempDewpointWater temp
2015-Jul-28 00:33N 37°45' W 122°22'4 3.9
2015-Jul-27 23:33N 37°49' W 122°24'2 1.8
2015-Jul-27 22:33N 37°48' W 122°27'0 0.0
2015-Jul-27 21:32N 37°48' W 122°27'0 0.0
2015-Jul-27 20:33N 37°48' W 122°27'0 0.0
2015-Jul-27 19:32N 37°48' W 122°27'0 0.0
2015-Jul-27 18:31N 37°48' W 122°27'0 0.0
2015-Jul-27 17:29N 37°48' W 122°27'0 0.0
2015-Jul-27 16:33N 37°48' W 122°27'0 0.0
2015-Jul-27 15:31N 37°48' W 122°27'0 0.0
2015-Jul-27 14:32N 37°48' W 122°27'0 0.0
2015-Jul-27 13:33N 37°48' W 122°27'0 0.0
2015-Jul-27 12:32N 37°48' W 122°27'0 0.0
2015-Jul-27 11:33N 37°48' W 122°27'0 0.0
2015-Jul-27 10:33N 37°48' W 122°27'0 0.0
2015-Jul-27 09:33N 37°48' W 122°27'0 0.0
2015-Jul-27 08:33N 37°48' W 122°27'0 0.0
2015-Jul-27 07:33N 37°48' W 122°27'0 0.0
2015-Jul-27 06:23N 37°48' W 122°27'0 0.0
2015-Jul-27 05:29N 37°48' W 122°27'0 0.0
2015-Jul-27 04:33N 37°48' W 122°27'0 0.0
2015-Jul-27 03:32N 37°48' W 122°27'0 0.0
2015-Jul-27 02:32N 37°48' W 122°27'0 0.0
2015-Jul-27 01:32N 37°48' W 122°27'0 0.0
2015-Jul-27 00:32N 37°48' W 122°27'1 1.4
2015-Jul-26 23:34N 37°49' W 122°25'3 2.9
2015-Jul-26 22:31N 37°46' W 122°23'2 2.6
2015-Jul-26 21:34N 37°48' W 122°24'2 2.0
2015-Jul-26 20:31N 37°48' W 122°27'0 0.0
2015-Jul-26 19:33N 37°48' W 122°27'0 0.0
2015-Jul-26 18:33N 37°48' W 122°27'0 0.0
2015-Jul-26 17:32N 37°48' W 122°27'0 0.0
2015-Jul-26 16:33N 37°48' W 122°27'0 0.0
2015-Jul-26 15:32N 37°48' W 122°27'0 0.0
2015-Jul-26 14:34N 37°48' W 122°27'0 0.0
2015-Jul-26 13:31N 37°48' W 122°27'0 0.0
2015-Jul-26 12:33N 37°48' W 122°27'0 0.0
2015-Jul-26 11:33N 37°48' W 122°27'0 0.0
2015-Jul-26 10:30N 37°48' W 122°27'0 0.0
2015-Jul-26 09:34N 37°48' W 122°27'0 0.0
2015-Jul-26 08:34N 37°48' W 122°27'0 0.0
2015-Jul-26 06:31N 37°48' W 122°27'0 0.0
2015-Jul-26 05:33N 37°48' W 122°27'0 0.0
2015-Jul-26 04:29N 37°48' W 122°27'0 0.0
2015-Jul-26 03:29N 37°48' W 122°27'0 0.2
2015-Jul-26 02:25N 37°48' W 122°27'0 0.0
2015-Jul-26 01:32N 37°48' W 122°27'0 0.0
2015-Jul-26 00:33N 37°48' W 122°27'4 3.9
2015-Jul-25 23:33N 37°52' W 122°25'4 3.6
2015-Jul-25 22:33N 37°49' W 122°27'1 0.8
2015-Jul-25 21:33N 37°48' W 122°27'2 2.2
2015-Jul-25 20:33N 37°50' W 122°24'3 2.6
2015-Jul-25 19:30N 37°51' W 122°27'2 2.2
2015-Jul-25 18:32N 37°49' W 122°28'1 0.9
2015-Jul-25 17:27N 37°48' W 122°27'0 0.0
2015-Jul-25 16:33N 37°48' W 122°27'0 0.0
2015-Jul-25 15:28N 37°48' W 122°27'0 0.0
2015-Jul-25 14:31N 37°48' W 122°27'0 0.0
2015-Jul-25 13:33N 37°48' W 122°27'0 0.0
2015-Jul-25 12:33N 37°48' W 122°27'0 0.0
2015-Jul-25 11:33N 37°48' W 122°27'0 0.0
2015-Jul-25 10:33N 37°48' W 122°27'0 0.0
2015-Jul-25 09:33N 37°48' W 122°27'0 0.0
2015-Jul-25 08:32N 37°48' W 122°27'0 0.0
2015-Jul-25 07:32N 37°48' W 122°27'0 0.0
2015-Jul-25 06:33N 37°48' W 122°27'2 1.0
2015-Jul-25 04:29N 37°49' W 122°24'5 5.2
2015-Jul-25 03:32N 37°52' W 122°19'0 0.0
2015-Jul-25 02:34N 37°52' W 122°19'6 5.4
2015-Jul-25 01:32N 37°47' W 122°23'0 0.1
2015-Jul-25 00:32N 37°47' W 122°23'5 5.5
2015-Jul-24 23:33N 37°52' W 122°19'0 0.1
2015-Jul-24 22:33N 37°52' W 122°19'0 0.0
2015-Jul-24 21:34N 37°52' W 122°19'0 0.0
2015-Jul-24 20:32N 37°52' W 122°19'0 0.0
2015-Jul-24 19:32N 37°52' W 122°19'0 0.0
2015-Jul-24 18:31N 37°52' W 122°19'0 0.0
2015-Jul-24 17:33N 37°52' W 122°19'0 0.0
2015-Jul-24 16:33N 37°52' W 122°19'0 0.0
2015-Jul-24 15:31N 37°52' W 122°19'0 0.0
2015-Jul-24 14:33N 37°52' W 122°19'0 0.0
2015-Jul-24 13:34N 37°52' W 122°19'0 0.0
2015-Jul-24 12:32N 37°52' W 122°19'0 0.0
2015-Jul-24 11:31N 37°52' W 122°19'0 0.0
2015-Jul-24 10:31N 37°52' W 122°19'0 0.0
2015-Jul-24 09:33N 37°52' W 122°19'0 0.0
2015-Jul-24 08:32N 37°52' W 122°19'0 0.0
2015-Jul-24 07:32N 37°52' W 122°19'0 0.0
2015-Jul-24 06:34N 37°52' W 122°19'0 0.0
2015-Jul-24 05:31N 37°52' W 122°19'0 0.0
2015-Jul-24 04:30N 37°52' W 122°19'0 0.0
2015-Jul-24 03:30N 37°52' W 122°19'0 0.0
2015-Jul-24 02:33N 37°52' W 122°19'0 0.0
2015-Jul-24 01:33N 37°52' W 122°19'0 0.0
2015-Jul-24 00:32N 37°52' W 122°19'1 1.1
2015-Jul-23 23:34N 37°51' W 122°20'  
2015-Jul-18 23:32N 36°33' W 121°57'7 6.5
2015-Jul-18 22:24N 36°35' W 122°06'7 0.7
2015-Jul-18 12:33N 36°31' W 121°59'10 9.6
2015-Jul-18 11:33N 36°22' W 121°58'8 8.4
2015-Jul-18 10:33N 36°14' W 121°54'  
Track history (hours):
 
Tides and Currents Weather Stations Pressure Air Temp Water Temp Dewpoint Dewpoint Depression Visibility Wind Speed Wind Dir Waves Ship Positions

America

Owner: ET Yacht, LLC, San Diego, CA. More information available from US FCC via Universal Licensing System and Coast Guard Vessel Documentation Center.

Last reported at 2015-Jul-28 00:33 UTC. Time now 2015-Jul-28 01:32 UTC.
Position N 37°45' W 122°22'.

Length 29 m.

Type: Sailing vessel. MMSI: 367375550.

Date/timePositionNaut miles runAvg speedWind from/ knotsBaromVisibWave heightAir tempDewpointWater temp
2015-Jul-28 00:33N 37°45' W 122°22'4 3.9
2015-Jul-27 23:33N 37°49' W 122°24'2 1.8
2015-Jul-27 22:33N 37°48' W 122°27'0 0.0
2015-Jul-27 21:32N 37°48' W 122°27'0 0.0
2015-Jul-27 20:33N 37°48' W 122°27'0 0.0
2015-Jul-27 19:32N 37°48' W 122°27'0 0.0
2015-Jul-27 18:31N 37°48' W 122°27'0 0.0
2015-Jul-27 17:29N 37°48' W 122°27'0 0.0
2015-Jul-27 16:33N 37°48' W 122°27'0 0.0
2015-Jul-27 15:31N 37°48' W 122°27'0 0.0
2015-Jul-27 14:32N 37°48' W 122°27'0 0.0
2015-Jul-27 13:33N 37°48' W 122°27'0 0.0
2015-Jul-27 12:32N 37°48' W 122°27'0 0.0
2015-Jul-27 11:33N 37°48' W 122°27'0 0.0
2015-Jul-27 10:33N 37°48' W 122°27'0 0.0
2015-Jul-27 09:33N 37°48' W 122°27'0 0.0
2015-Jul-27 08:33N 37°48' W 122°27'0 0.0
2015-Jul-27 07:33N 37°48' W 122°27'0 0.0
2015-Jul-27 06:23N 37°48' W 122°27'0 0.0
2015-Jul-27 05:29N 37°48' W 122°27'0 0.0
2015-Jul-27 04:33N 37°48' W 122°27'0 0.0
2015-Jul-27 03:32N 37°48' W 122°27'0 0.0
2015-Jul-27 02:32N 37°48' W 122°27'0 0.0
2015-Jul-27 01:32N 37°48' W 122°27'0 0.0
2015-Jul-27 00:32N 37°48' W 122°27'1 1.4
2015-Jul-26 23:34N 37°49' W 122°25'3 2.9
2015-Jul-26 22:31N 37°46' W 122°23'2 2.6
2015-Jul-26 21:34N 37°48' W 122°24'2 2.0
2015-Jul-26 20:31N 37°48' W 122°27'0 0.0
2015-Jul-26 19:33N 37°48' W 122°27'0 0.0
2015-Jul-26 18:33N 37°48' W 122°27'0 0.0
2015-Jul-26 17:32N 37°48' W 122°27'0 0.0
2015-Jul-26 16:33N 37°48' W 122°27'0 0.0
2015-Jul-26 15:32N 37°48' W 122°27'0 0.0
2015-Jul-26 14:34N 37°48' W 122°27'0 0.0
2015-Jul-26 13:31N 37°48' W 122°27'0 0.0
2015-Jul-26 12:33N 37°48' W 122°27'0 0.0
2015-Jul-26 11:33N 37°48' W 122°27'0 0.0
2015-Jul-26 10:30N 37°48' W 122°27'0 0.0
2015-Jul-26 09:34N 37°48' W 122°27'0 0.0
2015-Jul-26 08:34N 37°48' W 122°27'0 0.0
2015-Jul-26 06:31N 37°48' W 122°27'0 0.0
2015-Jul-26 05:33N 37°48' W 122°27'0 0.0
2015-Jul-26 04:29N 37°48' W 122°27'0 0.0
2015-Jul-26 03:29N 37°48' W 122°27'0 0.2
2015-Jul-26 02:25N 37°48' W 122°27'0 0.0
2015-Jul-26 01:32N 37°48' W 122°27'0 0.0
2015-Jul-26 00:33N 37°48' W 122°27'4 3.9
2015-Jul-25 23:33N 37°52' W 122°25'4 3.6
2015-Jul-25 22:33N 37°49' W 122°27'1 0.8
2015-Jul-25 21:33N 37°48' W 122°27'2 2.2
2015-Jul-25 20:33N 37°50' W 122°24'3 2.6
2015-Jul-25 19:30N 37°51' W 122°27'2 2.2
2015-Jul-25 18:32N 37°49' W 122°28'1 0.9
2015-Jul-25 17:27N 37°48' W 122°27'0 0.0
2015-Jul-25 16:33N 37°48' W 122°27'0 0.0
2015-Jul-25 15:28N 37°48' W 122°27'0 0.0
2015-Jul-25 14:31N 37°48' W 122°27'0 0.0
2015-Jul-25 13:33N 37°48' W 122°27'0 0.0
2015-Jul-25 12:33N 37°48' W 122°27'0 0.0
2015-Jul-25 11:33N 37°48' W 122°27'0 0.0
2015-Jul-25 10:33N 37°48' W 122°27'0 0.0
2015-Jul-25 09:33N 37°48' W 122°27'0 0.0
2015-Jul-25 08:32N 37°48' W 122°27'0 0.0
2015-Jul-25 07:32N 37°48' W 122°27'0 0.0
2015-Jul-25 06:33N 37°48' W 122°27'2 1.0
2015-Jul-25 04:29N 37°49' W 122°24'5 5.2
2015-Jul-25 03:32N 37°52' W 122°19'0 0.0
2015-Jul-25 02:34N 37°52' W 122°19'6 5.4
2015-Jul-25 01:32N 37°47' W 122°23'0 0.1
2015-Jul-25 00:32N 37°47' W 122°23'5 5.5
2015-Jul-24 23:33N 37°52' W 122°19'0 0.1
2015-Jul-24 22:33N 37°52' W 122°19'0 0.0
2015-Jul-24 21:34N 37°52' W 122°19'0 0.0
2015-Jul-24 20:32N 37°52' W 122°19'0 0.0
2015-Jul-24 19:32N 37°52' W 122°19'0 0.0
2015-Jul-24 18:31N 37°52' W 122°19'0 0.0
2015-Jul-24 17:33N 37°52' W 122°19'0 0.0
2015-Jul-24 16:33N 37°52' W 122°19'0 0.0
2015-Jul-24 15:31N 37°52' W 122°19'0 0.0
2015-Jul-24 14:33N 37°52' W 122°19'0 0.0
2015-Jul-24 13:34N 37°52' W 122°19'0 0.0
2015-Jul-24 12:32N 37°52' W 122°19'0 0.0
2015-Jul-24 11:31N 37°52' W 122°19'0 0.0
2015-Jul-24 10:31N 37°52' W 122°19'0 0.0
2015-Jul-24 09:33N 37°52' W 122°19'0 0.0
2015-Jul-24 08:32N 37°52' W 122°19'0 0.0
2015-Jul-24 07:32N 37°52' W 122°19'0 0.0
2015-Jul-24 06:34N 37°52' W 122°19'0 0.0
2015-Jul-24 05:31N 37°52' W 122°19'0 0.0
2015-Jul-24 04:30N 37°52' W 122°19'0 0.0
2015-Jul-24 03:30N 37°52' W 122°19'0 0.0
2015-Jul-24 02:33N 37°52' W 122°19'0 0.0
2015-Jul-24 01:33N 37°52' W 122°19'0 0.0
2015-Jul-24 00:32N 37°52' W 122°19'1 1.1
2015-Jul-23 23:34N 37°51' W 122°20'  
2015-Jul-18 23:32N 36°33' W 121°57'7 6.5
2015-Jul-18 22:24N 36°35' W 122°06'7 0.7
2015-Jul-18 12:33N 36°31' W 121°59'10 9.6
2015-Jul-18 11:33N 36°22' W 121°58'8 8.4
2015-Jul-18 10:33N 36°14' W 121°54'  

Dump ship's entire track history